sensor_id;sensor_type;location;lat;lon;timestamp;P1;durP1;ratioP1;P2;durP2;ratioP2
495;SDS011;39559;48.630;9.162;2022-07-29T00:01:24;22.50;;;20.20;;
495;SDS011;39559;48.630;9.162;2022-07-29T00:05:47;21.50;;;19.38;;
495;SDS011;39559;48.630;9.162;2022-07-29T00:08:13;25.07;;;20.10;;
495;SDS011;39559;48.630;9.162;2022-07-29T00:10:40;23.20;;;19.40;;
495;SDS011;39559;48.630;9.162;2022-07-29T00:13:06;21.38;;;19.25;;
495;SDS011;39559;48.630;9.162;2022-07-29T00:15:32;22.80;;;19.97;;
495;SDS011;39559;48.630;9.162;2022-07-29T00:17:58;20.93;;;18.83;;
495;SDS011;39559;48.630;9.162;2022-07-29T00:20:23;21.83;;;19.73;;
495;SDS011;39559;48.630;9.162;2022-07-29T00:22:49;36.93;;;19.47;;
495;SDS011;39559;48.630;9.162;2022-07-29T00:25:15;22.73;;;17.83;;
495;SDS011;39559;48.630;9.162;2022-07-29T00:29:42;18.65;;;16.85;;
495;SDS011;39559;48.630;9.162;2022-07-29T00:32:08;20.07;;;16.70;;
495;SDS011;39559;48.630;9.162;2022-07-29T00:34:34;18.60;;;16.80;;
495;SDS011;39559;48.630;9.162;2022-07-29T00:37:18;40.08;;;16.77;;
495;SDS011;39559;48.630;9.162;2022-07-29T00:39:43;18.67;;;16.73;;
495;SDS011;39559;48.630;9.162;2022-07-29T00:42:09;18.70;;;16.97;;
495;SDS011;39559;48.630;9.162;2022-07-29T00:44:36;18.92;;;16.80;;
495;SDS011;39559;48.630;9.162;2022-07-29T00:47:10;18.25;;;16.55;;
495;SDS011;39559;48.630;9.162;2022-07-29T00:49:40;17.65;;;15.85;;
495;SDS011;39559;48.630;9.162;2022-07-29T00:53:37;17.77;;;15.97;;
495;SDS011;39559;48.630;9.162;2022-07-29T00:56:04;30.65;;;17.63;;
495;SDS011;39559;48.630;9.162;2022-07-29T00:58:30;19.05;;;17.10;;
495;SDS011;39559;48.630;9.162;2022-07-29T01:01:01;19.35;;;17.35;;
495;SDS011;39559;48.630;9.162;2022-07-29T01:03:27;20.02;;;17.92;;
495;SDS011;39559;48.630;9.162;2022-07-29T01:05:53;17.40;;;15.70;;
495;SDS011;39559;48.630;9.162;2022-07-29T01:08:19;16.90;;;15.18;;
495;SDS011;39559;48.630;9.162;2022-07-29T01:10:47;16.20;;;14.48;;
495;SDS011;39559;48.630;9.162;2022-07-29T01:13:15;17.00;;;15.40;;
495;SDS011;39559;48.630;9.162;2022-07-29T01:32:10;21.17;;;18.20;;
495;SDS011;39559;48.630;9.162;2022-07-29T01:34:40;18.80;;;16.98;;
495;SDS011;39559;48.630;9.162;2022-07-29T01:41:34;18.55;;;16.65;;
495;SDS011;39559;48.630;9.162;2022-07-29T01:44:48;20.10;;;18.20;;
495;SDS011;39559;48.630;9.162;2022-07-29T01:47:05;20.45;;;18.38;;
495;SDS011;39559;48.630;9.162;2022-07-29T01:49:41;18.25;;;16.42;;
495;SDS011;39559;48.630;9.162;2022-07-29T01:52:14;18.52;;;16.63;;
495;SDS011;39559;48.630;9.162;2022-07-29T01:54:54;15.55;;;13.95;;
495;SDS011;39559;48.630;9.162;2022-07-29T01:57:25;16.60;;;15.00;;
495;SDS011;39559;48.630;9.162;2022-07-29T01:59:58;16.20;;;14.68;;
495;SDS011;39559;48.630;9.162;2022-07-29T02:02:26;16.75;;;13.88;;
495;SDS011;39559;48.630;9.162;2022-07-29T02:05:37;16.10;;;14.60;;
495;SDS011;39559;48.630;9.162;2022-07-29T02:08:08;60.90;;;17.85;;
495;SDS011;39559;48.630;9.162;2022-07-29T02:10:37;18.20;;;16.48;;
495;SDS011;39559;48.630;9.162;2022-07-29T02:13:07;19.05;;;17.08;;
495;SDS011;39559;48.630;9.162;2022-07-29T02:15:38;18.55;;;16.65;;
495;SDS011;39559;48.630;9.162;2022-07-29T02:18:15;19.75;;;17.75;;
495;SDS011;39559;48.630;9.162;2022-07-29T02:20:47;18.10;;;16.30;;
495;SDS011;39559;48.630;9.162;2022-07-29T02:23:20;17.42;;;15.82;;
495;SDS011;39559;48.630;9.162;2022-07-29T02:25:51;18.20;;;16.50;;
495;SDS011;39559;48.630;9.162;2022-07-29T02:29:30;42.13;;;17.05;;
495;SDS011;39559;48.630;9.162;2022-07-29T02:31:59;128.95;;;20.45;;
495;SDS011;39559;48.630;9.162;2022-07-29T02:34:28;15.07;;;13.68;;
495;SDS011;39559;48.630;9.162;2022-07-29T02:36:57;14.73;;;13.32;;
495;SDS011;39559;48.630;9.162;2022-07-29T02:39:24;14.02;;;12.77;;
495;SDS011;39559;48.630;9.162;2022-07-29T02:41:55;15.88;;;14.27;;
495;SDS011;39559;48.630;9.162;2022-07-29T02:44:27;17.25;;;15.55;;
495;SDS011;39559;48.630;9.162;2022-07-29T02:53:17;17.83;;;16.05;;
495;SDS011;39559;48.630;9.162;2022-07-29T02:55:51;17.10;;;15.40;;
495;SDS011;39559;48.630;9.162;2022-07-29T02:58:29;15.20;;;13.70;;
495;SDS011;39559;48.630;9.162;2022-07-29T03:01:10;16.63;;;14.68;;
495;SDS011;39559;48.630;9.162;2022-07-29T03:03:38;14.73;;;13.32;;
495;SDS011;39559;48.630;9.162;2022-07-29T03:06:07;24.73;;;14.40;;
495;SDS011;39559;48.630;9.162;2022-07-29T03:08:35;17.58;;;14.18;;
495;SDS011;39559;48.630;9.162;2022-07-29T03:11:13;16.25;;;14.65;;
495;SDS011;39559;48.630;9.162;2022-07-29T03:13:42;14.63;;;13.23;;
495;SDS011;39559;48.630;9.162;2022-07-29T03:17:11;15.85;;;14.35;;
495;SDS011;39559;48.630;9.162;2022-07-29T03:19:39;19.50;;;14.50;;
495;SDS011;39559;48.630;9.162;2022-07-29T03:22:05;28.13;;;14.90;;
495;SDS011;39559;48.630;9.162;2022-07-29T03:24:32;14.63;;;13.15;;
495;SDS011;39559;48.630;9.162;2022-07-29T03:27:05;17.10;;;15.40;;
495;SDS011;39559;48.630;9.162;2022-07-29T03:29:32;15.70;;;14.03;;
495;SDS011;39559;48.630;9.162;2022-07-29T03:31:58;17.23;;;15.40;;
495;SDS011;39559;48.630;9.162;2022-07-29T03:34:24;16.00;;;14.43;;
495;SDS011;39559;48.630;9.162;2022-07-29T03:36:50;14.37;;;12.87;;
495;SDS011;39559;48.630;9.162;2022-07-29T03:41:10;14.43;;;13.02;;
495;SDS011;39559;48.630;9.162;2022-07-29T03:43:38;16.13;;;14.43;;
495;SDS011;39559;48.630;9.162;2022-07-29T03:46:24;15.35;;;13.75;;
495;SDS011;39559;48.630;9.162;2022-07-29T03:48:55;15.40;;;13.20;;
495;SDS011;39559;48.630;9.162;2022-07-29T03:51:25;133.73;;;21.80;;
495;SDS011;39559;48.630;9.162;2022-07-29T03:53:53;14.40;;;13.00;;
495;SDS011;39559;48.630;9.162;2022-07-29T03:56:20;16.90;;;12.33;;
495;SDS011;39559;48.630;9.162;2022-07-29T03:58:49;13.63;;;12.25;;
495;SDS011;39559;48.630;9.162;2022-07-29T04:01:19;13.80;;;12.40;;
495;SDS011;39559;48.630;9.162;2022-07-29T04:05:03;14.73;;;13.10;;
495;SDS011;39559;48.630;9.162;2022-07-29T04:07:29;14.13;;;12.82;;
495;SDS011;39559;48.630;9.162;2022-07-29T04:09:55;14.53;;;13.03;;
495;SDS011;39559;48.630;9.162;2022-07-29T04:12:20;22.50;;;12.93;;
495;SDS011;39559;48.630;9.162;2022-07-29T04:14:46;97.70;;;18.10;;
495;SDS011;39559;48.630;9.162;2022-07-29T04:17:12;13.87;;;12.53;;
495;SDS011;39559;48.630;9.162;2022-07-29T04:19:38;13.70;;;12.43;;
495;SDS011;39559;48.630;9.162;2022-07-29T04:22:03;13.73;;;12.43;;
495;SDS011;39559;48.630;9.162;2022-07-29T04:24:29;13.70;;;12.37;;
495;SDS011;39559;48.630;9.162;2022-07-29T04:28:59;15.48;;;13.93;;
495;SDS011;39559;48.630;9.162;2022-07-29T04:31:25;15.47;;;13.10;;
495;SDS011;39559;48.630;9.162;2022-07-29T04:33:50;16.33;;;12.43;;
495;SDS011;39559;48.630;9.162;2022-07-29T04:36:16;15.00;;;13.50;;
495;SDS011;39559;48.630;9.162;2022-07-29T04:38:41;13.93;;;12.43;;
495;SDS011;39559;48.630;9.162;2022-07-29T04:41:08;16.23;;;13.75;;
495;SDS011;39559;48.630;9.162;2022-07-29T04:43:36;13.60;;;12.30;;
495;SDS011;39559;48.630;9.162;2022-07-29T04:46:03;15.50;;;13.18;;
495;SDS011;39559;48.630;9.162;2022-07-29T04:48:29;13.65;;;12.35;;
495;SDS011;39559;48.630;9.162;2022-07-29T04:52:55;13.70;;;12.40;;
495;SDS011;39559;48.630;9.162;2022-07-29T04:55:20;15.20;;;13.63;;
495;SDS011;39559;48.630;9.162;2022-07-29T04:57:46;15.03;;;13.47;;
495;SDS011;39559;48.630;9.162;2022-07-29T05:00:12;15.97;;;14.47;;
495;SDS011;39559;48.630;9.162;2022-07-29T05:02:38;15.95;;;14.35;;
495;SDS011;39559;48.630;9.162;2022-07-29T05:05:03;16.40;;;14.40;;
495;SDS011;39559;48.630;9.162;2022-07-29T05:07:29;16.40;;;14.50;;
495;SDS011;39559;48.630;9.162;2022-07-29T05:09:55;16.37;;;14.73;;
495;SDS011;39559;48.630;9.162;2022-07-29T05:12:22;17.45;;;15.65;;
495;SDS011;39559;48.630;9.162;2022-07-29T05:16:51;17.38;;;15.68;;
495;SDS011;39559;48.630;9.162;2022-07-29T05:19:18;17.70;;;15.80;;
495;SDS011;39559;48.630;9.162;2022-07-29T05:21:46;18.73;;;17.00;;
495;SDS011;39559;48.630;9.162;2022-07-29T05:24:13;20.20;;;18.10;;
495;SDS011;39559;48.630;9.162;2022-07-29T05:26:39;19.77;;;17.80;;
495;SDS011;39559;48.630;9.162;2022-07-29T05:29:05;20.27;;;18.10;;
495;SDS011;39559;48.630;9.162;2022-07-29T05:31:31;21.00;;;18.80;;
495;SDS011;39559;48.630;9.162;2022-07-29T05:33:56;20.97;;;18.63;;
495;SDS011;39559;48.630;9.162;2022-07-29T05:36:22;23.03;;;20.10;;
495;SDS011;39559;48.630;9.162;2022-07-29T05:40:47;23.00;;;19.63;;
495;SDS011;39559;48.630;9.162;2022-07-29T05:43:13;21.60;;;19.43;;
495;SDS011;39559;48.630;9.162;2022-07-29T05:45:38;21.43;;;19.17;;
495;SDS011;39559;48.630;9.162;2022-07-29T05:48:04;20.53;;;18.50;;
495;SDS011;39559;48.630;9.162;2022-07-29T05:50:30;20.70;;;18.50;;
495;SDS011;39559;48.630;9.162;2022-07-29T05:52:55;21.53;;;18.83;;
495;SDS011;39559;48.630;9.162;2022-07-29T05:55:21;20.57;;;18.63;;
495;SDS011;39559;48.630;9.162;2022-07-29T05:57:47;19.77;;;17.73;;
495;SDS011;39559;48.630;9.162;2022-07-29T06:00:12;21.47;;;18.77;;
495;SDS011;39559;48.630;9.162;2022-07-29T06:04:44;19.63;;;17.73;;
495;SDS011;39559;48.630;9.162;2022-07-29T06:07:09;35.43;;;18.37;;
495;SDS011;39559;48.630;9.162;2022-07-29T06:09:36;24.25;;;19.65;;
495;SDS011;39559;48.630;9.162;2022-07-29T06:12:02;22.80;;;20.40;;
495;SDS011;39559;48.630;9.162;2022-07-29T06:14:28;21.80;;;19.70;;
495;SDS011;39559;48.630;9.162;2022-07-29T06:16:54;20.23;;;18.07;;
495;SDS011;39559;48.630;9.162;2022-07-29T06:19:20;19.08;;;17.10;;
495;SDS011;39559;48.630;9.162;2022-07-29T06:21:46;17.77;;;16.17;;
495;SDS011;39559;48.630;9.162;2022-07-29T06:24:13;16.77;;;15.18;;
495;SDS011;39559;48.630;9.162;2022-07-29T06:28:40;15.73;;;14.02;;
495;SDS011;39559;48.630;9.162;2022-07-29T06:31:06;12.90;;;11.70;;
495;SDS011;39559;48.630;9.162;2022-07-29T06:33:31;13.70;;;12.23;;
495;SDS011;39559;48.630;9.162;2022-07-29T06:35:57;11.20;;;10.20;;
495;SDS011;39559;48.630;9.162;2022-07-29T06:38:23;11.83;;;10.53;;
495;SDS011;39559;48.630;9.162;2022-07-29T06:40:48;9.83;;;9.00;;
495;SDS011;39559;48.630;9.162;2022-07-29T06:43:31;10.70;;;9.70;;
495;SDS011;39559;48.630;9.162;2022-07-29T06:46:03;10.47;;;9.10;;
495;SDS011;39559;48.630;9.162;2022-07-29T06:48:32;9.20;;;8.40;;
495;SDS011;39559;48.630;9.162;2022-07-29T06:52:36;8.60;;;7.80;;
495;SDS011;39559;48.630;9.162;2022-07-29T06:55:02;9.10;;;8.07;;
495;SDS011;39559;48.630;9.162;2022-07-29T06:57:28;8.10;;;7.40;;
495;SDS011;39559;48.630;9.162;2022-07-29T06:59:55;8.73;;;7.93;;
495;SDS011;39559;48.630;9.162;2022-07-29T07:02:22;8.38;;;7.68;;
495;SDS011;39559;48.630;9.162;2022-07-29T07:04:47;7.90;;;7.20;;
495;SDS011;39559;48.630;9.162;2022-07-29T07:07:13;8.63;;;7.77;;
495;SDS011;39559;48.630;9.162;2022-07-29T07:09:39;8.67;;;7.87;;
495;SDS011;39559;48.630;9.162;2022-07-29T07:12:05;10.40;;;9.40;;
495;SDS011;39559;48.630;9.162;2022-07-29T07:16:33;9.27;;;8.47;;
495;SDS011;39559;48.630;9.162;2022-07-29T07:18:58;9.33;;;8.53;;
495;SDS011;39559;48.630;9.162;2022-07-29T07:21:24;8.80;;;8.00;;
495;SDS011;39559;48.630;9.162;2022-07-29T07:23:50;8.70;;;7.90;;
495;SDS011;39559;48.630;9.162;2022-07-29T07:26:16;8.77;;;8.07;;
495;SDS011;39559;48.630;9.162;2022-07-29T07:28:41;8.67;;;7.87;;
495;SDS011;39559;48.630;9.162;2022-07-29T07:31:07;9.20;;;8.20;;
495;SDS011;39559;48.630;9.162;2022-07-29T07:33:33;9.03;;;7.70;;
495;SDS011;39559;48.630;9.162;2022-07-29T07:35:58;8.87;;;7.97;;
495;SDS011;39559;48.630;9.162;2022-07-29T07:40:28;9.00;;;8.07;;
495;SDS011;39559;48.630;9.162;2022-07-29T07:42:54;9.47;;;8.67;;
495;SDS011;39559;48.630;9.162;2022-07-29T07:45:20;11.00;;;7.93;;
495;SDS011;39559;48.630;9.162;2022-07-29T07:47:45;9.33;;;8.53;;
495;SDS011;39559;48.630;9.162;2022-07-29T07:50:11;9.20;;;8.40;;
495;SDS011;39559;48.630;9.162;2022-07-29T07:52:51;9.10;;;8.20;;
495;SDS011;39559;48.630;9.162;2022-07-29T07:55:20;8.97;;;8.17;;
495;SDS011;39559;48.630;9.162;2022-07-29T07:57:46;9.87;;;8.63;;
495;SDS011;39559;48.630;9.162;2022-07-29T08:00:12;9.80;;;9.00;;
495;SDS011;39559;48.630;9.162;2022-07-29T08:04:25;10.50;;;9.53;;
495;SDS011;39559;48.630;9.162;2022-07-29T08:06:51;9.30;;;8.50;;
495;SDS011;39559;48.630;9.162;2022-07-29T08:09:19;9.53;;;8.73;;
495;SDS011;39559;48.630;9.162;2022-07-29T08:11:45;12.37;;;9.77;;
495;SDS011;39559;48.630;9.162;2022-07-29T08:14:11;10.83;;;9.83;;
495;SDS011;39559;48.630;9.162;2022-07-29T08:16:39;10.50;;;9.50;;
495;SDS011;39559;48.630;9.162;2022-07-29T08:19:05;10.97;;;9.83;;
495;SDS011;39559;48.630;9.162;2022-07-29T08:21:31;11.03;;;10.13;;
495;SDS011;39559;48.630;9.162;2022-07-29T08:23:57;10.77;;;9.77;;
495;SDS011;39559;48.630;9.162;2022-07-29T08:28:21;10.47;;;9.50;;
495;SDS011;39559;48.630;9.162;2022-07-29T08:30:47;10.50;;;9.60;;
495;SDS011;39559;48.630;9.162;2022-07-29T08:33:12;9.60;;;8.70;;
495;SDS011;39559;48.630;9.162;2022-07-29T08:35:38;12.67;;;11.40;;
495;SDS011;39559;48.630;9.162;2022-07-29T08:38:04;10.50;;;9.60;;
495;SDS011;39559;48.630;9.162;2022-07-29T08:40:30;10.57;;;9.63;;
495;SDS011;39559;48.630;9.162;2022-07-29T08:42:55;11.13;;;10.13;;
495;SDS011;39559;48.630;9.162;2022-07-29T08:45:21;11.50;;;10.30;;
495;SDS011;39559;48.630;9.162;2022-07-29T08:47:48;10.67;;;9.73;;
495;SDS011;39559;48.630;9.162;2022-07-29T08:52:17;10.80;;;9.70;;
495;SDS011;39559;48.630;9.162;2022-07-29T08:54:44;11.37;;;10.47;;
495;SDS011;39559;48.630;9.162;2022-07-29T08:57:14;10.60;;;9.70;;
495;SDS011;39559;48.630;9.162;2022-07-29T08:59:42;10.67;;;9.77;;
495;SDS011;39559;48.630;9.162;2022-07-29T09:02:11;11.40;;;10.40;;
495;SDS011;39559;48.630;9.162;2022-07-29T09:04:44;11.60;;;10.50;;
495;SDS011;39559;48.630;9.162;2022-07-29T09:07:10;11.00;;;10.10;;
495;SDS011;39559;48.630;9.162;2022-07-29T09:09:40;13.00;;;9.50;;
495;SDS011;39559;48.630;9.162;2022-07-29T09:12:08;11.37;;;10.37;;
495;SDS011;39559;48.630;9.162;2022-07-29T09:16:13;11.40;;;10.27;;
495;SDS011;39559;48.630;9.162;2022-07-29T09:18:41;10.90;;;10.00;;
495;SDS011;39559;48.630;9.162;2022-07-29T09:21:09;10.50;;;9.70;;
495;SDS011;39559;48.630;9.162;2022-07-29T09:24:02;11.40;;;10.30;;
495;SDS011;39559;48.630;9.162;2022-07-29T09:26:35;11.10;;;10.20;;
495;SDS011;39559;48.630;9.162;2022-07-29T09:31:36;11.90;;;10.90;;
495;SDS011;39559;48.630;9.162;2022-07-29T09:34:04;11.53;;;10.63;;
495;SDS011;39559;48.630;9.162;2022-07-29T09:36:32;10.90;;;10.00;;
495;SDS011;39559;48.630;9.162;2022-07-29T09:40:13;10.38;;;9.38;;
495;SDS011;39559;48.630;9.162;2022-07-29T09:42:49;11.97;;;10.97;;
495;SDS011;39559;48.630;9.162;2022-07-29T09:45:34;12.40;;;10.23;;
495;SDS011;39559;48.630;9.162;2022-07-29T09:48:00;11.30;;;10.40;;
495;SDS011;39559;48.630;9.162;2022-07-29T09:50:43;11.80;;;10.83;;
495;SDS011;39559;48.630;9.162;2022-07-29T09:53:10;12.07;;;11.17;;
495;SDS011;39559;48.630;9.162;2022-07-29T09:55:49;11.20;;;10.23;;
495;SDS011;39559;48.630;9.162;2022-07-29T09:58:16;12.13;;;11.13;;
495;SDS011;39559;48.630;9.162;2022-07-29T10:00:44;11.57;;;10.57;;
495;SDS011;39559;48.630;9.162;2022-07-29T10:04:04;12.10;;;10.87;;
495;SDS011;39559;48.630;9.162;2022-07-29T10:06:30;11.67;;;10.53;;
495;SDS011;39559;48.630;9.162;2022-07-29T10:09:08;11.80;;;10.80;;
495;SDS011;39559;48.630;9.162;2022-07-29T10:11:35;13.20;;;11.30;;
495;SDS011;39559;48.630;9.162;2022-07-29T10:14:02;12.00;;;10.80;;
495;SDS011;39559;48.630;9.162;2022-07-29T10:16:29;11.77;;;10.67;;
495;SDS011;39559;48.630;9.162;2022-07-29T10:19:00;11.27;;;10.37;;
495;SDS011;39559;48.630;9.162;2022-07-29T10:21:27;11.43;;;10.53;;
495;SDS011;39559;48.630;9.162;2022-07-29T10:23:53;10.90;;;10.10;;
495;SDS011;39559;48.630;9.162;2022-07-29T10:27:59;12.33;;;11.23;;
495;SDS011;39559;48.630;9.162;2022-07-29T10:30:25;12.00;;;11.00;;
495;SDS011;39559;48.630;9.162;2022-07-29T10:41:26;12.03;;;11.00;;
495;SDS011;39559;48.630;9.162;2022-07-29T10:44:17;12.03;;;10.93;;
495;SDS011;39559;48.630;9.162;2022-07-29T10:46:45;12.07;;;10.90;;
495;SDS011;39559;48.630;9.162;2022-07-29T10:51:56;11.50;;;10.50;;
495;SDS011;39559;48.630;9.162;2022-07-29T10:57:20;11.67;;;10.67;;
495;SDS011;39559;48.630;9.162;2022-07-29T10:59:46;11.10;;;10.03;;
495;SDS011;39559;48.630;9.162;2022-07-29T11:05:19;12.03;;;11.03;;
495;SDS011;39559;48.630;9.162;2022-07-29T11:10:41;10.60;;;9.67;;
495;SDS011;39559;48.630;9.162;2022-07-29T11:13:07;11.40;;;10.50;;
495;SDS011;39559;48.630;9.162;2022-07-29T11:15:57;11.70;;;10.60;;
495;SDS011;39559;48.630;9.162;2022-07-29T11:18:23;11.80;;;10.80;;
495;SDS011;39559;48.630;9.162;2022-07-29T11:20:51;12.20;;;10.90;;
495;SDS011;39559;48.630;9.162;2022-07-29T11:23:31;12.73;;;11.57;;
495;SDS011;39559;48.630;9.162;2022-07-29T11:28:51;11.70;;;10.57;;
495;SDS011;39559;48.630;9.162;2022-07-29T11:31:33;16.37;;;14.60;;
495;SDS011;39559;48.630;9.162;2022-07-29T11:47:48;17.83;;;15.90;;
495;SDS011;39559;48.630;9.162;2022-07-29T11:50:17;18.20;;;16.33;;
495;SDS011;39559;48.630;9.162;2022-07-29T11:53:10;20.07;;;17.00;;
495;SDS011;39559;48.630;9.162;2022-07-29T11:55:40;18.70;;;16.90;;
495;SDS011;39559;48.630;9.162;2022-07-29T11:58:06;23.77;;;21.53;;
495;SDS011;39559;48.630;9.162;2022-07-29T12:00:35;23.33;;;21.03;;
495;SDS011;39559;48.630;9.162;2022-07-29T12:03:39;24.73;;;21.50;;
495;SDS011;39559;48.630;9.162;2022-07-29T12:06:11;20.70;;;18.70;;
495;SDS011;39559;48.630;9.162;2022-07-29T12:08:41;19.03;;;17.17;;
495;SDS011;39559;48.630;9.162;2022-07-29T12:11:14;21.40;;;19.30;;
495;SDS011;39559;48.630;9.162;2022-07-29T12:13:41;24.53;;;20.93;;
495;SDS011;39559;48.630;9.162;2022-07-29T12:16:07;23.17;;;20.67;;
495;SDS011;39559;48.630;9.162;2022-07-29T12:18:33;23.47;;;20.60;;
495;SDS011;39559;48.630;9.162;2022-07-29T12:20:59;23.17;;;20.87;;
495;SDS011;39559;48.630;9.162;2022-07-29T12:23:32;28.97;;;21.97;;
495;SDS011;39559;48.630;9.162;2022-07-29T12:27:33;23.80;;;21.07;;
495;SDS011;39559;48.630;9.162;2022-07-29T12:30:01;21.20;;;19.00;;
495;SDS011;39559;48.630;9.162;2022-07-29T12:32:38;21.83;;;18.60;;
495;SDS011;39559;48.630;9.162;2022-07-29T12:35:12;22.20;;;19.03;;
495;SDS011;39559;48.630;9.162;2022-07-29T12:37:43;24.47;;;19.97;;
495;SDS011;39559;48.630;9.162;2022-07-29T12:40:10;25.27;;;20.40;;
495;SDS011;39559;48.630;9.162;2022-07-29T12:42:38;23.03;;;20.33;;
495;SDS011;39559;48.630;9.162;2022-07-29T12:45:05;20.67;;;17.70;;
495;SDS011;39559;48.630;9.162;2022-07-29T12:47:31;19.87;;;17.77;;
495;SDS011;39559;48.630;9.162;2022-07-29T12:51:29;18.60;;;16.73;;
495;SDS011;39559;48.630;9.162;2022-07-29T12:54:03;18.67;;;16.77;;
495;SDS011;39559;48.630;9.162;2022-07-29T12:56:33;18.40;;;16.60;;
495;SDS011;39559;48.630;9.162;2022-07-29T12:58:59;19.00;;;17.10;;
495;SDS011;39559;48.630;9.162;2022-07-29T13:01:43;17.17;;;15.30;;
495;SDS011;39559;48.630;9.162;2022-07-29T13:04:09;18.07;;;16.37;;
495;SDS011;39559;48.630;9.162;2022-07-29T13:06:39;18.13;;;16.20;;
495;SDS011;39559;48.630;9.162;2022-07-29T13:09:16;16.97;;;15.27;;
495;SDS011;39559;48.630;9.162;2022-07-29T13:11:47;18.30;;;16.60;;
495;SDS011;39559;48.630;9.162;2022-07-29T13:15:23;21.77;;;19.10;;
495;SDS011;39559;48.630;9.162;2022-07-29T13:17:49;20.60;;;18.53;;
495;SDS011;39559;48.630;9.162;2022-07-29T13:20:14;20.43;;;18.43;;
495;SDS011;39559;48.630;9.162;2022-07-29T13:22:41;20.63;;;18.73;;
495;SDS011;39559;48.630;9.162;2022-07-29T13:25:08;17.53;;;15.83;;
495;SDS011;39559;48.630;9.162;2022-07-29T13:27:35;18.60;;;16.57;;
495;SDS011;39559;48.630;9.162;2022-07-29T13:30:04;17.90;;;16.20;;
495;SDS011;39559;48.630;9.162;2022-07-29T13:32:34;20.13;;;17.80;;
495;SDS011;39559;48.630;9.162;2022-07-29T13:35:02;19.80;;;18.00;;
495;SDS011;39559;48.630;9.162;2022-07-29T13:39:18;20.37;;;18.30;;
495;SDS011;39559;48.630;9.162;2022-07-29T13:41:43;21.23;;;19.10;;
495;SDS011;39559;48.630;9.162;2022-07-29T13:44:09;20.73;;;18.83;;
495;SDS011;39559;48.630;9.162;2022-07-29T13:46:35;19.30;;;17.53;;
495;SDS011;39559;48.630;9.162;2022-07-29T13:49:01;20.50;;;18.60;;
495;SDS011;39559;48.630;9.162;2022-07-29T13:51:26;21.50;;;19.50;;
495;SDS011;39559;48.630;9.162;2022-07-29T13:53:52;24.03;;;20.10;;
495;SDS011;39559;48.630;9.162;2022-07-29T13:56:17;22.67;;;20.37;;
495;SDS011;39559;48.630;9.162;2022-07-29T13:58:43;23.30;;;21.17;;
495;SDS011;39559;48.630;9.162;2022-07-29T14:03:13;24.03;;;21.80;;
495;SDS011;39559;48.630;9.162;2022-07-29T14:05:38;25.03;;;22.43;;
495;SDS011;39559;48.630;9.162;2022-07-29T14:08:04;25.10;;;22.67;;
495;SDS011;39559;48.630;9.162;2022-07-29T14:10:29;25.23;;;22.70;;
495;SDS011;39559;48.630;9.162;2022-07-29T14:12:55;25.17;;;22.77;;
495;SDS011;39559;48.630;9.162;2022-07-29T14:15:21;25.00;;;22.50;;
495;SDS011;39559;48.630;9.162;2022-07-29T14:17:48;24.23;;;21.63;;
495;SDS011;39559;48.630;9.162;2022-07-29T14:20:14;25.20;;;22.60;;
495;SDS011;39559;48.630;9.162;2022-07-29T14:22:40;24.07;;;21.67;;
495;SDS011;39559;48.630;9.162;2022-07-29T14:27:09;23.37;;;21.27;;
495;SDS011;39559;48.630;9.162;2022-07-29T14:29:35;23.97;;;21.57;;
495;SDS011;39559;48.630;9.162;2022-07-29T14:32:01;24.47;;;22.07;;
495;SDS011;39559;48.630;9.162;2022-07-29T14:34:27;25.20;;;22.73;;
495;SDS011;39559;48.630;9.162;2022-07-29T14:36:53;24.53;;;22.13;;
495;SDS011;39559;48.630;9.162;2022-07-29T14:39:23;23.40;;;21.30;;
495;SDS011;39559;48.630;9.162;2022-07-29T14:41:49;24.47;;;22.03;;
495;SDS011;39559;48.630;9.162;2022-07-29T14:44:16;22.93;;;20.50;;
495;SDS011;39559;48.630;9.162;2022-07-29T14:46:43;24.40;;;21.73;;
495;SDS011;39559;48.630;9.162;2022-07-29T14:51:03;23.40;;;21.00;;
495;SDS011;39559;48.630;9.162;2022-07-29T14:53:28;23.13;;;20.93;;
495;SDS011;39559;48.630;9.162;2022-07-29T14:55:54;24.67;;;22.37;;
495;SDS011;39559;48.630;9.162;2022-07-29T14:58:20;25.17;;;22.50;;
495;SDS011;39559;48.630;9.162;2022-07-29T15:00:47;25.13;;;22.73;;
495;SDS011;39559;48.630;9.162;2022-07-29T15:03:13;25.30;;;22.60;;
495;SDS011;39559;48.630;9.162;2022-07-29T15:05:38;24.37;;;21.80;;
495;SDS011;39559;48.630;9.162;2022-07-29T15:08:04;24.40;;;22.00;;
495;SDS011;39559;48.630;9.162;2022-07-29T15:10:30;25.70;;;23.27;;
495;SDS011;39559;48.630;9.162;2022-07-29T15:14:58;25.93;;;23.33;;
495;SDS011;39559;48.630;9.162;2022-07-29T15:17:24;24.50;;;22.00;;
495;SDS011;39559;48.630;9.162;2022-07-29T15:19:50;26.20;;;23.70;;
495;SDS011;39559;48.630;9.162;2022-07-29T15:22:16;25.77;;;23.37;;
495;SDS011;39559;48.630;9.162;2022-07-29T15:24:42;24.90;;;22.60;;
495;SDS011;39559;48.630;9.162;2022-07-29T15:27:08;26.10;;;23.53;;
495;SDS011;39559;48.630;9.162;2022-07-29T15:29:42;24.37;;;22.17;;
495;SDS011;39559;48.630;9.162;2022-07-29T15:32:08;23.80;;;21.60;;
495;SDS011;39559;48.630;9.162;2022-07-29T15:34:36;23.83;;;21.30;;
495;SDS011;39559;48.630;9.162;2022-07-29T15:38:53;21.97;;;19.97;;
495;SDS011;39559;48.630;9.162;2022-07-29T15:41:19;21.77;;;19.80;;
495;SDS011;39559;48.630;9.162;2022-07-29T15:43:46;20.20;;;18.40;;
495;SDS011;39559;48.630;9.162;2022-07-29T15:46:16;21.57;;;19.37;;
495;SDS011;39559;48.630;9.162;2022-07-29T15:49:01;18.53;;;16.83;;
495;SDS011;39559;48.630;9.162;2022-07-29T15:51:29;18.40;;;16.67;;
495;SDS011;39559;48.630;9.162;2022-07-29T15:53:54;20.13;;;18.33;;
495;SDS011;39559;48.630;9.162;2022-07-29T15:56:20;20.60;;;18.70;;
495;SDS011;39559;48.630;9.162;2022-07-29T15:58:47;22.90;;;20.40;;
495;SDS011;39559;48.630;9.162;2022-07-29T16:02:48;24.13;;;21.57;;
495;SDS011;39559;48.630;9.162;2022-07-29T16:05:13;25.43;;;23.13;;
495;SDS011;39559;48.630;9.162;2022-07-29T16:07:39;23.93;;;21.73;;
495;SDS011;39559;48.630;9.162;2022-07-29T16:10:05;22.90;;;20.70;;
495;SDS011;39559;48.630;9.162;2022-07-29T16:12:32;19.77;;;17.97;;
495;SDS011;39559;48.630;9.162;2022-07-29T16:14:57;19.63;;;17.77;;
495;SDS011;39559;48.630;9.162;2022-07-29T16:17:23;18.77;;;17.07;;
495;SDS011;39559;48.630;9.162;2022-07-29T16:19:49;19.80;;;18.00;;
495;SDS011;39559;48.630;9.162;2022-07-29T16:22:14;19.90;;;17.87;;
495;SDS011;39559;48.630;9.162;2022-07-29T16:26:43;17.23;;;15.73;;
495;SDS011;39559;48.630;9.162;2022-07-29T16:29:08;18.10;;;16.33;;
495;SDS011;39559;48.630;9.162;2022-07-29T16:31:34;20.40;;;18.60;;
495;SDS011;39559;48.630;9.162;2022-07-29T16:34:00;16.80;;;15.30;;
495;SDS011;39559;48.630;9.162;2022-07-29T16:36:26;17.37;;;15.80;;
495;SDS011;39559;48.630;9.162;2022-07-29T16:38:52;19.40;;;17.60;;
495;SDS011;39559;48.630;9.162;2022-07-29T16:41:18;17.50;;;15.90;;
495;SDS011;39559;48.630;9.162;2022-07-29T16:43:43;19.00;;;17.30;;
495;SDS011;39559;48.630;9.162;2022-07-29T16:46:09;19.03;;;17.33;;
495;SDS011;39559;48.630;9.162;2022-07-29T16:50:37;18.20;;;16.20;;
495;SDS011;39559;48.630;9.162;2022-07-29T16:53:03;19.60;;;17.70;;
495;SDS011;39559;48.630;9.162;2022-07-29T16:55:29;22.20;;;18.30;;
495;SDS011;39559;48.630;9.162;2022-07-29T16:57:54;20.67;;;18.77;;
495;SDS011;39559;48.630;9.162;2022-07-29T17:00:20;20.43;;;18.33;;
495;SDS011;39559;48.630;9.162;2022-07-29T17:02:47;18.80;;;16.93;;
495;SDS011;39559;48.630;9.162;2022-07-29T17:05:13;17.17;;;15.67;;